Youngstown Warren Regional Airport
KYNG : now visible

Airfield :











YOU CAN JOIN US ON...

 
LOGIN :

Register | Disclaimer

   EN    FR    IT 

 









Legend :    VFR   Marginal VFR   IFR   Intensive IFR   Very Intensive IFR
Visi :
Ceiling :
>= 8 km
>= 3000ft
5 to 8 km
1000 to 3000 ft
1500m to 5 km
500 to 1000 ft
800 to 1500m
200 to 500 ft
< 800m
< 200 ft
Symbols :   Thunderstorms  Fog  Heavy snow  Heavy precipitations  Wind > 20 kt






- Airport Elevation : 1192 ft
- IATA code : YNG


KYNG - Youngstown Warren Regional

CURRENT METAR :
  • 270151Z 27009G16KT 1 1/2SM -RASN BR OVC003 01/M01 A2961 RMK AO2 SNB15 SLP035 P0004 T00111006

EXPIRED METARs :
  • 270139Z 28010KT 1 3/4SM -RASN BR OVC003 01/M01 A2961 RMK AO2 SNB15 P0003 T00111006
  • 270127Z 28008KT 3SM -RASN BR BKN004 OVC008 02/01 A2961 RMK AO2 SNB15 P0003 T00220006
  • 270105Z 28010KT 5SM -RA BR BKN006 OVC014 03/01 A2960 RMK AO2 P0001 T00280006
  • 270051Z 29009KT 3SM -RA BR BKN004 OVC014 03/01 A2960 RMK AO2 SLP031 P0004 T00280011
  • 270042Z 29009KT 3SM -RA BR BKN004 OVC014 03/01 A2960 RMK AO2 P0004 T00330011
  • 262351Z 30007KT 2SM -RA BR OVC003 04/03 A2960 RMK AO2 SLP032 P0002 60021 T00390028 10061 20039 56021

TAF KYNG
Valid from the 27 at 02:00 until the 28 at 00:00 UTC


270203Z 2702/2724 28010KT 2SM -RASN OVC008
TEMPO 2702/2704 1 1/2SM -RASN OVC003
FM270400 28010G20KT 2SM -SHSN OVC008
FM270900 28015G30KT P6SM VCSH OVC015
PROB30 2719/2723 2SM -SHSN BKN008



MET'MAP, your aeronautical weather chart ! - Copyright ORBIFLY December 2007 - Disclaimer

ORBIFLY MET'MAP TEAM :

Programming & Development : Alexandra Zaïnal
Concept & original design : Baudouin d'Aumeries
Assistance for programming : Marc-Olivier Méhu
Technical & hardware support : Manuel Goepfert

Contact : metmap@orbifly.com




SOURCES & CREDITS :

   NOAA       Earth
Advisory